Time,TemperatureF,DewpointF,PressureIn,WindDirection,WindDirectionDegrees,WindSpeedMPH,WindSpeedGustMPH,Humidity,HourlyPrecipIn,Conditions,Clouds,dailyrainin,SoftwareType,DateUTC
2013-02-04 08:35:00,49.8,34.7,30.07,South,188,0.0,1.0,56,0.00,,,0.00,Wunderground v.1.15,2013-02-04 15:35:00,
2013-02-04 08:40:00,49.6,34.1,30.07,South,188,1.0,1.0,55,0.00,,,0.00,Wunderground v.1.15,2013-02-04 15:40:00,
2013-02-04 08:45:00,49.6,33.6,30.07,South,188,1.0,1.0,54,0.00,,,0.00,Wunderground v.1.15,2013-02-04 15:45:00,
2013-02-04 08:50:00,49.8,33.8,30.07,South,188,1.0,1.0,54,0.00,,,0.00,Wunderground v.1.15,2013-02-04 15:50:00,
2013-02-04 08:55:00,49.9,33.9,30.07,South,188,1.0,1.0,54,0.00,,,0.00,Wunderground v.1.15,2013-02-04 15:55:00,
2013-02-04 09:00:00,50.1,32.7,30.07,South,188,1.0,1.0,51,0.00,,,0.00,Wunderground v.1.15,2013-02-04 16:00:00,
2013-02-04 09:05:00,50.5,34.0,30.07,South,188,1.0,1.0,53,0.00,,,0.00,Wunderground v.1.15,2013-02-04 16:05:00,
2013-02-04 09:15:00,51.9,32.3,30.08,South,188,1.0,2.0,47,0.00,,,0.00,Wunderground v.1.15,2013-02-04 16:15:00,
2013-02-04 09:20:00,52.3,32.1,30.08,South,188,1.0,1.0,46,0.00,,,0.00,Wunderground v.1.15,2013-02-04 16:20:00,
2013-02-04 09:25:00,52.6,31.8,30.08,South,188,1.0,1.0,45,0.00,,,0.00,Wunderground v.1.15,2013-02-04 16:25:00,
2013-02-04 09:30:00,52.8,32.6,30.08,South,188,0.0,1.0,46,0.00,,,0.00,Wunderground v.1.15,2013-02-04 16:30:00,
2013-02-04 09:35:00,52.8,32.0,30.08,South,188,1.0,2.0,45,0.00,,,0.00,Wunderground v.1.15,2013-02-04 16:35:00,
2013-02-04 09:45:00,52.9,32.1,30.09,South,188,2.0,2.0,45,0.00,,,0.00,Wunderground v.1.15,2013-02-04 16:45:00,
2013-02-04 09:50:00,53.2,32.4,30.09,South,188,2.0,2.0,45,0.00,,,0.00,Wunderground v.1.15,2013-02-04 16:50:00,
2013-02-04 09:55:00,53.8,32.4,30.09,South,188,1.0,2.0,44,0.00,,,0.00,Wunderground v.1.15,2013-02-04 16:55:00,
2013-02-04 10:00:00,54.1,32.6,30.09,South,188,1.0,2.0,44,0.00,,,0.00,Wunderground v.1.15,2013-02-04 17:00:00,
2013-02-04 10:05:00,54.2,32.2,30.09,South,188,1.0,2.0,43,0.00,,,0.00,Wunderground v.1.15,2013-02-04 17:05:00,
2013-02-04 10:15:00,54.4,33.5,30.09,South,188,1.0,1.0,45,0.00,,,0.00,Wunderground v.1.15,2013-02-04 17:15:00,
2013-02-04 10:20:00,54.8,34.4,30.09,South,188,1.0,3.0,46,0.00,,,0.00,Wunderground v.1.15,2013-02-04 17:20:00,
2013-02-04 10:25:00,55.0,34.0,30.10,South,188,2.0,3.0,45,0.00,,,0.00,Wunderground v.1.15,2013-02-04 17:25:00,
2013-02-04 10:30:00,55.4,32.7,30.09,SE,142,2.0,6.0,42,0.00,,,0.00,Wunderground v.1.15,2013-02-04 17:30:00,
2013-02-04 10:35:00,55.6,32.8,30.09,ESE,116,3.0,6.0,42,0.00,,,0.00,Wunderground v.1.15,2013-02-04 17:35:00,
2013-02-04 10:40:00,56.2,32.2,30.09,ESE,116,4.0,4.0,40,0.00,,,0.00,Wunderground v.1.15,2013-02-04 17:40:00,
2013-02-04 10:45:00,56.7,32.6,30.10,East,80,4.0,4.0,40,0.00,,,0.00,Wunderground v.1.15,2013-02-04 17:45:00,
2013-02-04 10:50:00,56.7,32.6,30.10,East,82,4.0,4.0,40,0.00,,,0.00,Wunderground v.1.15,2013-02-04 17:50:00,
2013-02-04 10:55:00,56.5,32.4,30.09,East,86,3.0,4.0,40,0.00,,,0.00,Wunderground v.1.15,2013-02-04 17:55:00,
2013-02-04 11:00:00,56.5,32.4,30.09,East,86,4.0,4.0,40,0.00,,,0.00,Wunderground v.1.15,2013-02-04 18:00:00,
2013-02-04 11:05:00,57.0,32.3,30.09,East,90,4.0,7.0,39,0.00,,,0.00,Wunderground v.1.15,2013-02-04 18:05:00,
2013-02-04 11:15:00,57.3,32.5,30.09,ESE,122,5.0,5.0,39,0.00,,,0.00,Wunderground v.1.15,2013-02-04 18:15:00,
2013-02-04 11:25:00,57.0,32.3,30.08,East,94,5.0,5.0,39,0.00,,,0.00,Wunderground v.1.15,2013-02-04 18:25:00,
2013-02-04 11:30:00,57.2,31.8,30.08,East,94,4.0,5.0,38,0.00,,,0.00,Wunderground v.1.15,2013-02-04 18:30:00,
2013-02-04 11:35:00,57.5,32.7,30.07,East,92,5.0,6.0,39,0.00,,,0.00,Wunderground v.1.15,2013-02-04 18:35:00,
2013-02-04 11:40:00,58.1,32.6,30.07,East,92,6.0,6.0,38,0.00,,,0.00,Wunderground v.1.15,2013-02-04 18:40:00,
2013-02-04 11:45:00,58.6,33.0,30.07,SE,128,5.0,12.0,38,0.00,,,0.00,Wunderground v.1.15,2013-02-04 18:45:00,
2013-02-04 11:55:00,59.0,32.1,30.07,SE,133,8.0,11.0,36,0.00,,,0.00,Wunderground v.1.15,2013-02-04 18:55:00,
2013-02-04 12:00:00,58.7,32.5,30.06,ESE,118,9.0,9.0,37,0.00,,,0.00,Wunderground v.1.15,2013-02-04 19:00:00,
2013-02-04 12:05:00,59.2,32.2,30.06,ESE,121,9.0,9.0,36,0.00,,,0.00,Wunderground v.1.15,2013-02-04 19:05:00,
2013-02-04 12:15:00,58.7,32.5,30.06,ESE,113,10.0,11.0,37,0.00,,,0.00,Wunderground v.1.15,2013-02-04 19:15:00,
2013-02-04 12:20:00,59.3,33.0,30.05,SE,126,9.0,9.0,37,0.00,,,0.00,Wunderground v.1.15,2013-02-04 19:20:00,
2013-02-04 12:30:00,59.3,32.3,30.05,SE,142,10.0,13.0,36,0.00,,,0.00,Wunderground v.1.15,2013-02-04 19:30:00,
2013-02-04 12:35:00,59.6,32.6,30.04,SE,133,10.0,13.0,36,0.00,,,0.00,Wunderground v.1.15,2013-02-04 19:35:00,
2013-02-04 12:40:00,60.1,32.3,30.04,ESE,108,9.0,9.0,35,0.00,,,0.00,Wunderground v.1.15,2013-02-04 19:40:00,
2013-02-04 12:45:00,60.4,32.6,30.04,SE,124,9.0,11.0,35,0.00,,,0.00,Wunderground v.1.15,2013-02-04 19:45:00,
2013-02-04 12:50:00,59.9,32.2,30.03,SE,124,10.0,13.0,35,0.00,,,0.00,Wunderground v.1.15,2013-02-04 19:50:00,
2013-02-04 12:55:00,59.8,32.8,30.03,SE,130,11.0,15.0,36,0.00,,,0.00,Wunderground v.1.15,2013-02-04 19:55:00,
2013-02-04 13:00:00,60.2,32.4,30.03,ESE,123,11.0,13.0,35,0.00,,,0.00,Wunderground v.1.15,2013-02-04 20:00:00,
2013-02-04 13:05:00,60.4,32.6,30.02,SE,138,10.0,13.0,35,0.00,,,0.00,Wunderground v.1.15,2013-02-04 20:05:00,
2013-02-04 13:15:00,59.8,32.8,30.02,SE,128,9.0,10.0,36,0.00,,,0.00,Wunderground v.1.15,2013-02-04 20:15:00,
2013-02-04 13:20:00,59.9,32.2,30.02,SE,127,9.0,9.0,35,0.00,,,0.00,Wunderground v.1.15,2013-02-04 20:20:00,
2013-02-04 13:25:00,59.9,32.2,30.01,ESE,110,8.0,9.0,35,0.00,,,0.00,Wunderground v.1.15,2013-02-04 20:25:00,
2013-02-04 13:30:00,59.9,32.2,30.01,SE,126,9.0,11.0,35,0.00,,,0.00,Wunderground v.1.15,2013-02-04 20:30:00,
2013-02-04 13:35:00,60.5,32.7,30.01,SE,130,9.0,11.0,35,0.00,,,0.00,Wunderground v.1.15,2013-02-04 20:35:00,
2013-02-04 13:40:00,61.0,33.8,30.00,ESE,115,9.0,9.0,36,0.00,,,0.00,Wunderground v.1.15,2013-02-04 20:40:00,
2013-02-04 13:50:00,61.5,33.6,30.00,SE,128,10.0,10.0,35,0.00,,,0.00,Wunderground v.1.15,2013-02-04 20:50:00,
2013-02-04 13:55:00,62.0,32.5,30.00,East,101,9.0,10.0,33,0.00,,,0.00,Wunderground v.1.15,2013-02-04 20:55:00,
2013-02-04 14:05:00,63.5,32.3,29.99,SE,134,7.0,10.0,31,0.00,,,0.00,Wunderground v.1.15,2013-02-04 21:05:00,
2013-02-04 14:15:00,63.4,33.0,29.99,SE,145,7.0,14.0,32,0.00,,,0.00,Wunderground v.1.15,2013-02-04 21:15:00,
2013-02-04 14:20:00,63.9,32.6,29.99,SW,228,7.0,7.0,31,0.00,,,0.00,Wunderground v.1.15,2013-02-04 21:20:00,
2013-02-04 14:25:00,64.3,33.0,29.99,South,190,7.0,12.0,31,0.00,,,0.00,Wunderground v.1.15,2013-02-04 21:25:00,
2013-02-04 14:30:00,64.2,32.9,30.00,South,175,7.0,7.0,31,0.00,,,0.00,Wunderground v.1.15,2013-02-04 21:30:00,
2013-02-04 14:40:00,64.0,32.7,29.99,WSW,253,7.0,7.0,31,0.00,,,0.00,Wunderground v.1.15,2013-02-04 21:40:00,
2013-02-04 14:45:00,64.0,33.5,29.99,WSW,252,5.0,7.0,32,0.00,,,0.00,Wunderground v.1.15,2013-02-04 21:45:00,
2013-02-04 14:50:00,63.9,32.6,29.99,WSW,238,3.0,4.0,31,0.00,,,0.00,Wunderground v.1.15,2013-02-04 21:50:00,
2013-02-04 14:55:00,63.5,33.1,29.99,ENE,76,4.0,4.0,32,0.00,,,0.00,Wunderground v.1.15,2013-02-04 21:55:00,
2013-02-04 15:00:00,63.4,33.8,29.99,West,272,5.0,5.0,33,0.00,,,0.00,Wunderground v.1.15,2013-02-04 22:00:00,
2013-02-04 15:05:00,62.9,34.1,29.99,West,274,4.0,5.0,34,0.00,,,0.00,Wunderground v.1.15,2013-02-04 22:05:00,
2013-02-04 15:15:00,62.4,32.9,29.99,West,281,2.0,3.0,33,0.00,,,0.00,Wunderground v.1.15,2013-02-04 22:15:00,
2013-02-04 15:20:00,62.4,33.6,29.98,West,281,1.0,1.0,34,0.00,,,0.00,Wunderground v.1.15,2013-02-04 22:20:00,
2013-02-04 15:25:00,62.6,33.8,29.98,WNW,282,0.0,1.0,34,0.00,,,0.00,Wunderground v.1.15,2013-02-04 22:25:00,
2013-02-04 15:30:00,62.3,32.8,29.98,WNW,282,1.0,3.0,33,0.00,,,0.00,Wunderground v.1.15,2013-02-04 22:30:00,
2013-02-04 15:35:00,62.0,34.0,29.99,WNW,282,3.0,3.0,35,0.00,,,0.00,Wunderground v.1.15,2013-02-04 22:35:00,
2013-02-04 15:45:00,62.0,33.3,29.98,WNW,282,2.0,4.0,34,0.00,,,0.00,Wunderground v.1.15,2013-02-04 22:45:00,
2013-02-04 15:50:00,62.0,34.0,29.99,WNW,283,2.0,5.0,35,0.00,,,0.00,Wunderground v.1.15,2013-02-04 22:50:00,
2013-02-04 15:55:00,62.6,32.3,29.99,NW,318,4.0,5.0,32,0.00,,,0.00,Wunderground v.1.15,2013-02-04 22:55:00,
2013-02-04 16:00:00,62.3,33.6,29.98,NW,325,5.0,6.0,34,0.00,,,0.00,Wunderground v.1.15,2013-02-04 23:00:00,
2013-02-04 16:05:00,61.5,33.6,29.99,NW,323,4.0,6.0,35,0.00,,,0.00,Wunderground v.1.15,2013-02-04 23:05:00,
2013-02-04 16:15:00,60.5,32.7,29.99,NW,323,3.0,4.0,35,0.00,,,0.00,Wunderground v.1.15,2013-02-04 23:15:00,
2013-02-04 16:20:00,60.4,33.3,29.98,NW,323,3.0,4.0,36,0.00,,,0.00,Wunderground v.1.15,2013-02-04 23:20:00,
2013-02-04 16:25:00,60.4,34.0,29.99,NW,323,3.0,4.0,37,0.00,,,0.00,Wunderground v.1.15,2013-02-04 23:25:00,
2013-02-04 16:30:00,60.4,33.3,29.99,NW,323,3.0,3.0,36,0.00,,,0.00,Wunderground v.1.15,2013-02-04 23:30:00,
2013-02-04 16:35:00,60.4,33.3,29.98,NW,323,3.0,4.0,36,0.00,,,0.00,Wunderground v.1.15,2013-02-04 23:35:00,
2013-02-04 16:40:00,60.5,33.4,29.98,NW,323,2.0,2.0,36,0.00,,,0.00,Wunderground v.1.15,2013-02-04 23:40:00,
2013-02-04 16:45:00,60.5,33.4,29.98,NW,323,2.0,2.0,36,0.00,,,0.00,Wunderground v.1.15,2013-02-04 23:45:00,
2013-02-04 16:50:00,60.9,33.0,29.98,NW,323,1.0,1.0,35,0.00,,,0.00,Wunderground v.1.15,2013-02-04 23:50:00,
2013-02-04 16:55:00,61.2,34.0,29.98,NW,323,0.0,1.0,36,0.00,,,0.00,Wunderground v.1.15,2013-02-04 23:55:00,
2013-02-04 17:00:00,61.0,33.8,29.98,NW,323,0.0,0.0,36,0.00,,,0.00,Wunderground v.1.15,2013-02-05 00:00:00,
2013-02-04 17:05:00,60.9,34.4,29.98,NW,323,0.0,0.0,37,0.00,,,0.00,Wunderground v.1.15,2013-02-05 00:05:00,
2013-02-04 17:15:00,61.2,32.6,29.98,NW,323,0.0,0.0,34,0.00,,,0.00,Wunderground v.1.15,2013-02-05 00:15:00,
2013-02-04 17:20:00,61.2,34.0,29.98,NW,323,0.0,0.0,36,0.00,,,0.00,Wunderground v.1.15,2013-02-05 00:20:00,
2013-02-04 17:25:00,60.9,33.7,29.98,NW,323,0.0,0.0,36,0.00,,,0.00,Wunderground v.1.15,2013-02-05 00:25:00,
2013-02-04 17:30:00,60.4,34.0,29.98,NW,323,0.0,0.0,37,0.00,,,0.00,Wunderground v.1.15,2013-02-05 00:30:00,
2013-02-04 17:35:00,60.1,33.7,29.98,NW,323,0.0,0.0,37,0.00,,,0.00,Wunderground v.1.15,2013-02-05 00:35:00,
2013-02-04 17:40:00,59.5,34.5,29.98,NW,323,0.0,0.0,39,0.00,,,0.00,Wunderground v.1.15,2013-02-05 00:40:00,
2013-02-04 17:50:00,58.7,33.8,29.98,NW,323,0.0,0.0,39,0.00,,,0.00,Wunderground v.1.15,2013-02-05 00:50:00,
2013-02-04 17:55:00,58.3,33.4,29.98,NW,323,1.0,1.0,39,0.00,,,0.00,Wunderground v.1.15,2013-02-05 00:55:00,
2013-02-04 18:00:00,58.1,33.9,29.98,NW,323,0.0,1.0,40,0.00,,,0.00,Wunderground v.1.15,2013-02-05 01:00:00,
2013-02-04 18:05:00,57.8,34.2,29.99,NW,323,1.0,2.0,41,0.00,,,0.00,Wunderground v.1.15,2013-02-05 01:05:00,
2013-02-04 18:15:00,57.0,34.1,29.99,NW,323,2.0,2.0,42,0.00,,,0.00,Wunderground v.1.15,2013-02-05 01:15:00,
2013-02-04 18:25:00,56.5,34.8,29.99,NW,323,2.0,2.0,44,0.00,,,0.00,Wunderground v.1.15,2013-02-05 01:25:00,
2013-02-04 18:30:00,55.3,35.9,30.00,NW,323,2.0,2.0,48,0.00,,,0.00,Wunderground v.1.15,2013-02-05 01:30:00,
2013-02-04 18:35:00,53.6,35.4,30.00,NW,323,2.0,3.0,50,0.00,,,0.00,Wunderground v.1.15,2013-02-05 01:35:00,
2013-02-04 18:40:00,52.2,36.0,30.00,NW,323,3.0,3.0,54,0.00,,,0.00,Wunderground v.1.15,2013-02-05 01:40:00,
2013-02-04 18:50:00,53.2,33.5,30.00,NW,323,3.0,3.0,47,0.00,,,0.00,Wunderground v.1.15,2013-02-05 01:50:00,
2013-02-04 18:55:00,53.9,35.7,30.00,NW,323,2.0,3.0,50,0.00,,,0.00,Wunderground v.1.15,2013-02-05 01:55:00,
2013-02-04 19:00:00,52.8,35.6,30.00,NW,323,2.0,3.0,52,0.00,,,0.00,Wunderground v.1.15,2013-02-05 02:00:00,
2013-02-04 19:05:00,52.8,35.6,30.00,NW,323,3.0,3.0,52,0.00,,,0.00,Wunderground v.1.15,2013-02-05 02:05:00,
2013-02-04 19:15:00,52.6,35.9,30.00,NW,323,1.0,2.0,53,0.00,,,0.00,Wunderground v.1.15,2013-02-05 02:15:00,
2013-02-04 19:20:00,52.0,35.9,30.00,NW,323,1.0,2.0,54,0.00,,,0.00,Wunderground v.1.15,2013-02-05 02:20:00,
2013-02-04 19:25:00,52.0,35.9,30.00,WNW,292,2.0,2.0,54,0.00,,,0.00,Wunderground v.1.15,2013-02-05 02:25:00,
2013-02-04 19:30:00,52.6,35.9,30.00,WNW,288,2.0,2.0,53,0.00,,,0.00,Wunderground v.1.15,2013-02-05 02:30:00,
2013-02-04 19:35:00,52.9,35.7,30.00,West,260,2.0,2.0,52,0.00,,,0.00,Wunderground v.1.15,2013-02-05 02:35:00,
2013-02-04 19:40:00,53.1,34.9,30.00,WSW,257,2.0,3.0,50,0.00,,,0.00,Wunderground v.1.15,2013-02-05 02:40:00,
2013-02-04 19:45:00,53.3,35.6,30.00,WSW,257,3.0,3.0,51,0.00,,,0.00,Wunderground v.1.15,2013-02-05 02:45:00,
2013-02-04 19:55:00,52.3,35.2,30.01,WSW,238,3.0,3.0,52,0.00,,,0.00,Wunderground v.1.15,2013-02-05 02:55:00,
2013-02-04 20:00:00,52.2,35.1,30.01,SW,232,3.0,3.0,52,0.00,,,0.00,Wunderground v.1.15,2013-02-05 03:00:00,
2013-02-04 20:05:00,51.7,35.1,30.01,SW,232,2.0,3.0,53,0.00,,,0.00,Wunderground v.1.15,2013-02-05 03:05:00,
2013-02-04 20:15:00,51.4,35.3,30.01,SW,231,3.0,3.0,54,0.00,,,0.00,Wunderground v.1.15,2013-02-05 03:15:00,
2013-02-04 20:25:00,51.0,35.8,30.02,SW,227,3.0,3.0,56,0.00,,,0.00,Wunderground v.1.15,2013-02-05 03:25:00,
2013-02-04 20:30:00,51.0,35.4,30.02,SW,227,2.0,2.0,55,0.00,,,0.00,Wunderground v.1.15,2013-02-05 03:30:00,
2013-02-04 20:35:00,51.0,34.9,30.03,SW,227,2.0,4.0,54,0.00,,,0.00,Wunderground v.1.15,2013-02-05 03:35:00,
2013-02-04 20:40:00,51.6,35.0,30.03,SSW,195,3.0,3.0,53,0.00,,,0.00,Wunderground v.1.15,2013-02-05 03:40:00,
2013-02-04 20:45:00,51.6,35.0,30.03,SSW,195,3.0,3.0,53,0.00,,,0.00,Wunderground v.1.15,2013-02-05 03:45:00,
2013-02-04 20:50:00,51.3,35.2,30.03,SSW,194,2.0,4.0,54,0.00,,,0.00,Wunderground v.1.15,2013-02-05 03:50:00,
2013-02-04 21:00:00,51.3,34.7,30.03,SSW,193,3.0,3.0,53,0.00,,,0.00,Wunderground v.1.15,2013-02-05 04:00:00,
2013-02-04 21:05:00,51.9,34.8,30.03,SSW,193,2.0,3.0,52,0.00,,,0.00,Wunderground v.1.15,2013-02-05 04:05:00,
2013-02-04 21:15:00,51.4,34.8,30.03,SSW,192,2.0,2.0,53,0.00,,,0.00,Wunderground v.1.15,2013-02-05 04:15:00,
2013-02-04 21:20:00,51.0,34.9,30.03,SSW,192,2.0,2.0,54,0.00,,,0.00,Wunderground v.1.15,2013-02-05 04:20:00,
2013-02-04 21:30:00,50.4,34.4,30.04,SSW,192,2.0,2.0,54,0.00,,,0.00,Wunderground v.1.15,2013-02-05 04:30:00,
2013-02-04 21:35:00,50.4,34.4,30.04,SSW,192,2.0,3.0,54,0.00,,,0.00,Wunderground v.1.15,2013-02-05 04:35:00,
2013-02-04 21:40:00,50.4,34.4,30.04,SSW,192,2.0,2.0,54,0.00,,,0.00,Wunderground v.1.15,2013-02-05 04:40:00,
2013-02-04 21:45:00,50.2,35.1,30.04,South,191,2.0,3.0,56,0.00,,,0.00,Wunderground v.1.15,2013-02-05 04:45:00,
2013-02-04 21:50:00,50.2,35.5,30.04,South,191,2.0,5.0,57,0.00,,,0.00,Wunderground v.1.15,2013-02-05 04:50:00,
2013-02-04 21:55:00,50.1,35.9,30.04,SSW,192,2.0,5.0,58,0.00,,,0.00,Wunderground v.1.15,2013-02-05 04:55:00,
2013-02-04 22:00:00,50.1,35.9,30.04,SSW,192,2.0,4.0,58,0.00,,,0.00,Wunderground v.1.15,2013-02-05 05:00:00,
2013-02-04 22:05:00,50.1,35.4,30.04,SSW,192,2.0,4.0,57,0.00,,,0.00,Wunderground v.1.15,2013-02-05 05:05:00,
2013-02-04 22:10:00,50.2,35.5,30.04,SSW,192,2.0,2.0,57,0.00,,,0.00,Wunderground v.1.15,2013-02-05 05:10:00,
2013-02-04 22:15:00,50.4,35.3,30.05,SSW,192,3.0,3.0,56,0.00,,,0.00,Wunderground v.1.15,2013-02-05 05:15:00,
2013-02-04 22:20:00,50.4,35.7,30.05,SSW,192,2.0,2.0,57,0.00,,,0.00,Wunderground v.1.15,2013-02-05 05:20:00,
2013-02-04 22:25:00,50.4,35.7,30.05,SSW,192,2.0,3.0,57,0.00,,,0.00,Wunderground v.1.15,2013-02-05 05:25:00,
2013-02-04 22:30:00,50.7,35.6,30.04,SSW,192,2.0,2.0,56,0.00,,,0.00,Wunderground v.1.15,2013-02-05 05:30:00,
2013-02-04 22:40:00,50.2,35.5,30.04,SSW,192,2.0,2.0,57,0.00,,,0.00,Wunderground v.1.15,2013-02-05 05:40:00,
2013-02-04 22:45:00,49.8,35.2,30.04,SSW,193,2.0,2.0,57,0.00,,,0.00,Wunderground v.1.15,2013-02-05 05:45:00,
2013-02-04 22:50:00,49.5,35.3,30.04,SSW,193,2.0,4.0,58,0.00,,,0.00,Wunderground v.1.15,2013-02-05 05:50:00,
2013-02-04 23:00:00,49.4,35.2,30.04,SSW,193,3.0,3.0,58,0.00,,,0.00,Wunderground v.1.15,2013-02-05 06:00:00,
2013-02-04 23:05:00,49.2,35.0,30.04,SSW,192,3.0,3.0,58,0.00,,,0.00,Wunderground v.1.15,2013-02-05 06:05:00,
2013-02-04 23:15:00,48.9,35.2,30.04,SSW,192,2.0,2.0,59,0.00,,,0.00,Wunderground v.1.15,2013-02-05 06:15:00,
2013-02-04 23:20:00,48.8,35.1,30.04,SSW,192,3.0,4.0,59,0.00,,,0.00,Wunderground v.1.15,2013-02-05 06:20:00,
2013-02-04 23:25:00,48.8,35.1,30.05,SSW,192,3.0,4.0,59,0.00,,,0.00,Wunderground v.1.15,2013-02-05 06:25:00,
2013-02-04 23:30:00,48.8,35.1,30.05,SSW,192,3.0,3.0,59,0.00,,,0.00,Wunderground v.1.15,2013-02-05 06:30:00,
2013-02-04 23:40:00,48.9,34.8,30.05,SSW,192,3.0,3.0,58,0.00,,,0.00,Wunderground v.1.15,2013-02-05 06:40:00,
2013-02-04 23:45:00,48.9,34.8,30.05,SSW,192,2.0,3.0,58,0.00,,,0.00,Wunderground v.1.15,2013-02-05 06:45:00,
2013-02-04 23:50:00,49.1,34.5,30.04,SSW,192,2.0,2.0,57,0.00,,,0.00,Wunderground v.1.15,2013-02-05 06:50:00,
2013-02-04 23:55:00,49.1,34.5,30.05,SSW,192,2.0,4.0,57,0.00,,,0.00,Wunderground v.1.15,2013-02-05 06:55:00,